sensor_id;sensor_type;location;lat;lon;timestamp;temperature;humidity
15107;DHT22;7654;45.308;-75.096;2022-12-10T00:01:03;-4.30;99.90
15107;DHT22;7654;45.308;-75.096;2022-12-10T00:03:36;-4.30;99.90
15107;DHT22;7654;45.308;-75.096;2022-12-10T00:06:09;-4.30;99.90
15107;DHT22;7654;45.308;-75.096;2022-12-10T00:08:40;-4.40;99.90
15107;DHT22;7654;45.308;-75.096;2022-12-10T00:11:12;-4.50;99.90
15107;DHT22;7654;45.308;-75.096;2022-12-10T00:13:44;-4.40;99.90
15107;DHT22;7654;45.308;-75.096;2022-12-10T00:16:20;-4.40;99.90
15107;DHT22;7654;45.308;-75.096;2022-12-10T00:18:58;-4.50;99.90
15107;DHT22;7654;45.308;-75.096;2022-12-10T00:21:30;-4.70;99.90
15107;DHT22;7654;45.308;-75.096;2022-12-10T00:24:01;-4.70;99.90
15107;DHT22;7654;45.308;-75.096;2022-12-10T00:26:35;-4.60;99.90
15107;DHT22;7654;45.308;-75.096;2022-12-10T00:29:06;-4.70;99.90
15107;DHT22;7654;45.308;-75.096;2022-12-10T00:31:39;-4.70;99.90
15107;DHT22;7654;45.308;-75.096;2022-12-10T00:34:11;-4.70;99.90
15107;DHT22;7654;45.308;-75.096;2022-12-10T00:36:43;-4.80;99.90
15107;DHT22;7654;45.308;-75.096;2022-12-10T00:39:17;-4.80;99.90
15107;DHT22;7654;45.308;-75.096;2022-12-10T00:41:48;-4.90;99.90
15107;DHT22;7654;45.308;-75.096;2022-12-10T00:44:19;-4.90;99.90
15107;DHT22;7654;45.308;-75.096;2022-12-10T00:46:50;-4.90;99.90
15107;DHT22;7654;45.308;-75.096;2022-12-10T00:49:21;-4.90;99.90
15107;DHT22;7654;45.308;-75.096;2022-12-10T00:51:52;-4.90;99.90
15107;DHT22;7654;45.308;-75.096;2022-12-10T00:54:22;-5.00;99.90
15107;DHT22;7654;45.308;-75.096;2022-12-10T00:56:53;-5.10;99.90
15107;DHT22;7654;45.308;-75.096;2022-12-10T00:59:23;-5.10;99.90
15107;DHT22;7654;45.308;-75.096;2022-12-10T01:01:54;-5.20;99.90
15107;DHT22;7654;45.308;-75.096;2022-12-10T01:04:26;-5.20;99.90
15107;DHT22;7654;45.308;-75.096;2022-12-10T01:06:56;-5.30;99.90
15107;DHT22;7654;45.308;-75.096;2022-12-10T01:09:29;-5.40;99.90
15107;DHT22;7654;45.308;-75.096;2022-12-10T01:12:01;-5.40;99.90
15107;DHT22;7654;45.308;-75.096;2022-12-10T01:14:33;-5.50;99.90
15107;DHT22;7654;45.308;-75.096;2022-12-10T01:17:06;-5.40;99.90
15107;DHT22;7654;45.308;-75.096;2022-12-10T01:19:36;-5.30;99.90
15107;DHT22;7654;45.308;-75.096;2022-12-10T01:22:07;-5.40;99.90
15107;DHT22;7654;45.308;-75.096;2022-12-10T01:24:37;-5.50;99.90
15107;DHT22;7654;45.308;-75.096;2022-12-10T01:27:08;-5.50;99.90
15107;DHT22;7654;45.308;-75.096;2022-12-10T01:29:38;-5.60;99.90
15107;DHT22;7654;45.308;-75.096;2022-12-10T01:32:10;-5.60;99.90
15107;DHT22;7654;45.308;-75.096;2022-12-10T01:34:41;-5.60;99.90
15107;DHT22;7654;45.308;-75.096;2022-12-10T01:37:11;-5.70;99.90
15107;DHT22;7654;45.308;-75.096;2022-12-10T01:39:42;-5.70;99.90
15107;DHT22;7654;45.308;-75.096;2022-12-10T01:42:14;-5.70;99.90
15107;DHT22;7654;45.308;-75.096;2022-12-10T01:45:07;-5.70;99.90
15107;DHT22;7654;45.308;-75.096;2022-12-10T01:47:40;-5.70;99.90
15107;DHT22;7654;45.308;-75.096;2022-12-10T01:50:10;-5.70;99.90
15107;DHT22;7654;45.308;-75.096;2022-12-10T01:52:41;-5.70;99.90
15107;DHT22;7654;45.308;-75.096;2022-12-10T01:55:39;-5.80;99.90
15107;DHT22;7654;45.308;-75.096;2022-12-10T01:58:10;-5.80;99.90
15107;DHT22;7654;45.308;-75.096;2022-12-10T02:00:49;-5.90;99.90
15107;DHT22;7654;45.308;-75.096;2022-12-10T02:03:33;-6.00;99.90
15107;DHT22;7654;45.308;-75.096;2022-12-10T02:06:17;-6.00;99.90
15107;DHT22;7654;45.308;-75.096;2022-12-10T02:08:56;-6.00;99.90
15107;DHT22;7654;45.308;-75.096;2022-12-10T02:11:36;-6.10;99.90
15107;DHT22;7654;45.308;-75.096;2022-12-10T02:14:14;-6.10;99.90
15107;DHT22;7654;45.308;-75.096;2022-12-10T02:16:49;-6.10;99.90
15107;DHT22;7654;45.308;-75.096;2022-12-10T02:19:30;-6.20;99.90
15107;DHT22;7654;45.308;-75.096;2022-12-10T02:22:06;-6.20;99.90
15107;DHT22;7654;45.308;-75.096;2022-12-10T02:24:40;-6.40;99.90
15107;DHT22;7654;45.308;-75.096;2022-12-10T02:27:14;-6.40;99.90
15107;DHT22;7654;45.308;-75.096;2022-12-10T02:29:49;-6.60;99.90
15107;DHT22;7654;45.308;-75.096;2022-12-10T02:32:23;-6.70;99.90
15107;DHT22;7654;45.308;-75.096;2022-12-10T02:34:58;-6.80;99.90
15107;DHT22;7654;45.308;-75.096;2022-12-10T02:37:36;-6.90;99.90
15107;DHT22;7654;45.308;-75.096;2022-12-10T02:40:11;-7.00;99.90
15107;DHT22;7654;45.308;-75.096;2022-12-10T02:42:45;-7.10;99.90
15107;DHT22;7654;45.308;-75.096;2022-12-10T02:45:22;-7.20;99.90
15107;DHT22;7654;45.308;-75.096;2022-12-10T02:47:56;-7.20;99.90
15107;DHT22;7654;45.308;-75.096;2022-12-10T02:50:27;-7.30;99.90
15107;DHT22;7654;45.308;-75.096;2022-12-10T02:52:57;-7.30;99.90
15107;DHT22;7654;45.308;-75.096;2022-12-10T02:55:30;-7.40;99.90
15107;DHT22;7654;45.308;-75.096;2022-12-10T02:58:13;-7.50;99.90
15107;DHT22;7654;45.308;-75.096;2022-12-10T03:00:53;-7.60;99.90
15107;DHT22;7654;45.308;-75.096;2022-12-10T03:03:34;-7.60;99.90
15107;DHT22;7654;45.308;-75.096;2022-12-10T03:06:12;-7.70;99.90
15107;DHT22;7654;45.308;-75.096;2022-12-10T03:08:48;-7.70;99.90
15107;DHT22;7654;45.308;-75.096;2022-12-10T03:11:22;-7.70;99.90
15107;DHT22;7654;45.308;-75.096;2022-12-10T03:13:57;-7.80;99.90
15107;DHT22;7654;45.308;-75.096;2022-12-10T03:16:35;-7.70;99.90
15107;DHT22;7654;45.308;-75.096;2022-12-10T03:19:10;-7.50;99.90
15107;DHT22;7654;45.308;-75.096;2022-12-10T03:21:41;-7.40;99.90
15107;DHT22;7654;45.308;-75.096;2022-12-10T03:24:13;-7.10;99.90
15107;DHT22;7654;45.308;-75.096;2022-12-10T03:26:45;-7.00;99.90
15107;DHT22;7654;45.308;-75.096;2022-12-10T03:29:23;-7.00;99.90
15107;DHT22;7654;45.308;-75.096;2022-12-10T03:31:56;-7.10;99.90
15107;DHT22;7654;45.308;-75.096;2022-12-10T03:34:29;-7.00;99.90
15107;DHT22;7654;45.308;-75.096;2022-12-10T03:36:59;-7.10;99.90
15107;DHT22;7654;45.308;-75.096;2022-12-10T03:39:30;-7.20;99.90
15107;DHT22;7654;45.308;-75.096;2022-12-10T03:42:00;-7.20;99.90
15107;DHT22;7654;45.308;-75.096;2022-12-10T03:44:31;-7.30;99.90
15107;DHT22;7654;45.308;-75.096;2022-12-10T03:47:05;-7.20;99.90
15107;DHT22;7654;45.308;-75.096;2022-12-10T03:49:42;-7.30;99.90
15107;DHT22;7654;45.308;-75.096;2022-12-10T03:52:13;-7.40;99.90
15107;DHT22;7654;45.308;-75.096;2022-12-10T03:54:43;-7.40;99.90
15107;DHT22;7654;45.308;-75.096;2022-12-10T03:57:13;-7.40;99.90
15107;DHT22;7654;45.308;-75.096;2022-12-10T03:59:43;-7.50;99.90
15107;DHT22;7654;45.308;-75.096;2022-12-10T04:02:15;-7.50;99.90
15107;DHT22;7654;45.308;-75.096;2022-12-10T04:04:45;-7.50;99.90
15107;DHT22;7654;45.308;-75.096;2022-12-10T04:07:15;-7.60;99.90
15107;DHT22;7654;45.308;-75.096;2022-12-10T04:09:45;-7.50;99.90
15107;DHT22;7654;45.308;-75.096;2022-12-10T04:12:15;-7.40;99.90
15107;DHT22;7654;45.308;-75.096;2022-12-10T04:14:46;-7.40;99.90
15107;DHT22;7654;45.308;-75.096;2022-12-10T04:17:34;-7.40;99.90
15107;DHT22;7654;45.308;-75.096;2022-12-10T04:20:05;-7.50;99.90
15107;DHT22;7654;45.308;-75.096;2022-12-10T04:22:57;-7.60;99.90
15107;DHT22;7654;45.308;-75.096;2022-12-10T04:25:44;-7.70;99.90
15107;DHT22;7654;45.308;-75.096;2022-12-10T04:28:31;-7.70;99.90
15107;DHT22;7654;45.308;-75.096;2022-12-10T04:31:01;-7.80;99.90
15107;DHT22;7654;45.308;-75.096;2022-12-10T04:33:33;-7.80;99.90
15107;DHT22;7654;45.308;-75.096;2022-12-10T04:36:04;-7.80;99.90
15107;DHT22;7654;45.308;-75.096;2022-12-10T04:38:34;-7.80;99.90
15107;DHT22;7654;45.308;-75.096;2022-12-10T04:41:04;-7.90;99.90
15107;DHT22;7654;45.308;-75.096;2022-12-10T04:43:43;-7.90;99.90
15107;DHT22;7654;45.308;-75.096;2022-12-10T04:46:13;-7.80;99.90
15107;DHT22;7654;45.308;-75.096;2022-12-10T04:48:45;-8.00;99.90
15107;DHT22;7654;45.308;-75.096;2022-12-10T04:51:15;-8.20;99.90
15107;DHT22;7654;45.308;-75.096;2022-12-10T04:53:45;-8.30;99.90
15107;DHT22;7654;45.308;-75.096;2022-12-10T04:56:15;-8.30;99.90
15107;DHT22;7654;45.308;-75.096;2022-12-10T04:58:45;-8.40;99.90
15107;DHT22;7654;45.308;-75.096;2022-12-10T05:01:16;-8.40;99.90
15107;DHT22;7654;45.308;-75.096;2022-12-10T05:03:47;-8.50;99.90
15107;DHT22;7654;45.308;-75.096;2022-12-10T05:06:19;-8.50;99.90
15107;DHT22;7654;45.308;-75.096;2022-12-10T05:08:56;-8.60;99.90
15107;DHT22;7654;45.308;-75.096;2022-12-10T05:11:32;-8.60;99.90
15107;DHT22;7654;45.308;-75.096;2022-12-10T05:14:03;-8.70;99.90
15107;DHT22;7654;45.308;-75.096;2022-12-10T05:16:34;-8.80;99.90
15107;DHT22;7654;45.308;-75.096;2022-12-10T05:19:05;-8.80;99.90
15107;DHT22;7654;45.308;-75.096;2022-12-10T05:21:36;-8.80;99.90
15107;DHT22;7654;45.308;-75.096;2022-12-10T05:24:28;-8.90;99.90
15107;DHT22;7654;45.308;-75.096;2022-12-10T05:26:58;-8.90;99.90
15107;DHT22;7654;45.308;-75.096;2022-12-10T05:29:28;-8.70;99.90
15107;DHT22;7654;45.308;-75.096;2022-12-10T05:31:59;-8.70;99.90
15107;DHT22;7654;45.308;-75.096;2022-12-10T05:34:31;-8.80;99.90
15107;DHT22;7654;45.308;-75.096;2022-12-10T05:37:02;-8.90;99.90
15107;DHT22;7654;45.308;-75.096;2022-12-10T05:39:32;-8.90;99.90
15107;DHT22;7654;45.308;-75.096;2022-12-10T05:42:02;-8.80;99.90
15107;DHT22;7654;45.308;-75.096;2022-12-10T05:44:32;-8.90;99.90
15107;DHT22;7654;45.308;-75.096;2022-12-10T05:47:03;-8.90;99.90
15107;DHT22;7654;45.308;-75.096;2022-12-10T05:49:34;-9.00;99.90
15107;DHT22;7654;45.308;-75.096;2022-12-10T05:52:04;-9.00;99.90
15107;DHT22;7654;45.308;-75.096;2022-12-10T05:54:36;-9.10;99.90
15107;DHT22;7654;45.308;-75.096;2022-12-10T05:57:06;-9.10;99.90
15107;DHT22;7654;45.308;-75.096;2022-12-10T05:59:36;-9.10;99.90
15107;DHT22;7654;45.308;-75.096;2022-12-10T06:02:07;-9.20;99.90
15107;DHT22;7654;45.308;-75.096;2022-12-10T06:04:39;-9.30;99.90
15107;DHT22;7654;45.308;-75.096;2022-12-10T06:07:09;-9.30;99.90
15107;DHT22;7654;45.308;-75.096;2022-12-10T06:09:39;-9.40;99.90
15107;DHT22;7654;45.308;-75.096;2022-12-10T06:12:09;-9.30;99.90
15107;DHT22;7654;45.308;-75.096;2022-12-10T06:14:39;-9.20;99.90
15107;DHT22;7654;45.308;-75.096;2022-12-10T06:17:09;-9.10;99.90
15107;DHT22;7654;45.308;-75.096;2022-12-10T06:19:41;-9.10;99.90
15107;DHT22;7654;45.308;-75.096;2022-12-10T06:22:11;-9.00;99.90
15107;DHT22;7654;45.308;-75.096;2022-12-10T06:24:41;-9.20;99.90
15107;DHT22;7654;45.308;-75.096;2022-12-10T06:27:11;-9.30;99.90
15107;DHT22;7654;45.308;-75.096;2022-12-10T06:29:41;-9.40;99.90
15107;DHT22;7654;45.308;-75.096;2022-12-10T06:32:12;-9.50;99.90
15107;DHT22;7654;45.308;-75.096;2022-12-10T06:34:45;-9.40;99.90
15107;DHT22;7654;45.308;-75.096;2022-12-10T06:37:15;-9.50;99.90
15107;DHT22;7654;45.308;-75.096;2022-12-10T06:39:45;-9.60;99.90
15107;DHT22;7654;45.308;-75.096;2022-12-10T06:42:15;-9.60;99.90
15107;DHT22;7654;45.308;-75.096;2022-12-10T06:44:45;-9.60;99.90
15107;DHT22;7654;45.308;-75.096;2022-12-10T06:47:16;-9.50;99.90
15107;DHT22;7654;45.308;-75.096;2022-12-10T06:49:47;-9.50;99.90
15107;DHT22;7654;45.308;-75.096;2022-12-10T06:52:18;-9.60;99.90
15107;DHT22;7654;45.308;-75.096;2022-12-10T06:54:48;-9.60;99.90
15107;DHT22;7654;45.308;-75.096;2022-12-10T06:57:18;-9.50;99.90
15107;DHT22;7654;45.308;-75.096;2022-12-10T06:59:48;-9.60;99.90
15107;DHT22;7654;45.308;-75.096;2022-12-10T07:02:18;-9.50;99.90
15107;DHT22;7654;45.308;-75.096;2022-12-10T07:04:50;-9.50;99.90
15107;DHT22;7654;45.308;-75.096;2022-12-10T07:07:20;-9.60;99.90
15107;DHT22;7654;45.308;-75.096;2022-12-10T07:09:50;-9.60;99.90
15107;DHT22;7654;45.308;-75.096;2022-12-10T07:12:21;-9.60;99.90
15107;DHT22;7654;45.308;-75.096;2022-12-10T07:14:51;-9.50;99.90
15107;DHT22;7654;45.308;-75.096;2022-12-10T07:17:21;-9.50;99.90
15107;DHT22;7654;45.308;-75.096;2022-12-10T07:19:53;-9.60;99.90
15107;DHT22;7654;45.308;-75.096;2022-12-10T07:22:24;-9.60;99.90
15107;DHT22;7654;45.308;-75.096;2022-12-10T07:24:54;-9.50;99.90
15107;DHT22;7654;45.308;-75.096;2022-12-10T07:27:24;-9.50;99.90
15107;DHT22;7654;45.308;-75.096;2022-12-10T07:29:55;-9.50;99.90
15107;DHT22;7654;45.308;-75.096;2022-12-10T07:32:27;-9.40;99.90
15107;DHT22;7654;45.308;-75.096;2022-12-10T07:34:59;-9.40;99.90
15107;DHT22;7654;45.308;-75.096;2022-12-10T07:37:29;-9.50;99.90
15107;DHT22;7654;45.308;-75.096;2022-12-10T07:39:59;-9.60;99.90
15107;DHT22;7654;45.308;-75.096;2022-12-10T07:42:30;-9.60;99.90
15107;DHT22;7654;45.308;-75.096;2022-12-10T07:45:00;-9.70;99.90
15107;DHT22;7654;45.308;-75.096;2022-12-10T07:47:30;-9.80;99.90
15107;DHT22;7654;45.308;-75.096;2022-12-10T07:50:02;-9.70;99.90
15107;DHT22;7654;45.308;-75.096;2022-12-10T07:52:32;-9.80;99.90
15107;DHT22;7654;45.308;-75.096;2022-12-10T07:55:03;-9.70;99.90
15107;DHT22;7654;45.308;-75.096;2022-12-10T07:57:33;-9.70;99.90
15107;DHT22;7654;45.308;-75.096;2022-12-10T08:00:03;-9.60;99.90
15107;DHT22;7654;45.308;-75.096;2022-12-10T08:02:35;-9.60;99.90
15107;DHT22;7654;45.308;-75.096;2022-12-10T08:05:08;-9.70;99.90
15107;DHT22;7654;45.308;-75.096;2022-12-10T08:07:38;-9.80;99.90
15107;DHT22;7654;45.308;-75.096;2022-12-10T08:10:09;-9.80;99.90
15107;DHT22;7654;45.308;-75.096;2022-12-10T08:12:39;-9.80;99.90
15107;DHT22;7654;45.308;-75.096;2022-12-10T08:15:10;-9.90;99.90
15107;DHT22;7654;45.308;-75.096;2022-12-10T08:17:40;-9.90;99.90
15107;DHT22;7654;45.308;-75.096;2022-12-10T08:20:12;-9.90;99.90
15107;DHT22;7654;45.308;-75.096;2022-12-10T08:22:42;-9.90;99.90
15107;DHT22;7654;45.308;-75.096;2022-12-10T08:25:12;-9.90;99.90
15107;DHT22;7654;45.308;-75.096;2022-12-10T08:27:43;-9.90;99.90
15107;DHT22;7654;45.308;-75.096;2022-12-10T08:30:13;-9.90;99.90
15107;DHT22;7654;45.308;-75.096;2022-12-10T08:32:44;-9.90;99.90
15107;DHT22;7654;45.308;-75.096;2022-12-10T08:35:16;-9.90;99.90
15107;DHT22;7654;45.308;-75.096;2022-12-10T08:37:47;-9.90;99.90
15107;DHT22;7654;45.308;-75.096;2022-12-10T08:40:17;-10.00;99.90
15107;DHT22;7654;45.308;-75.096;2022-12-10T08:42:47;-9.90;99.90
15107;DHT22;7654;45.308;-75.096;2022-12-10T08:45:23;-9.90;99.90
15107;DHT22;7654;45.308;-75.096;2022-12-10T08:47:55;-10.00;99.90
15107;DHT22;7654;45.308;-75.096;2022-12-10T08:50:26;-10.00;99.90
15107;DHT22;7654;45.308;-75.096;2022-12-10T08:52:57;-10.00;99.90
15107;DHT22;7654;45.308;-75.096;2022-12-10T08:55:27;-10.10;99.90
15107;DHT22;7654;45.308;-75.096;2022-12-10T08:57:58;-10.10;99.90
15107;DHT22;7654;45.308;-75.096;2022-12-10T09:00:28;-10.00;99.90
15107;DHT22;7654;45.308;-75.096;2022-12-10T09:02:58;-10.10;99.90
15107;DHT22;7654;45.308;-75.096;2022-12-10T09:05:30;-10.00;99.90
15107;DHT22;7654;45.308;-75.096;2022-12-10T09:08:00;-10.00;99.90
15107;DHT22;7654;45.308;-75.096;2022-12-10T09:10:30;-10.00;99.90
15107;DHT22;7654;45.308;-75.096;2022-12-10T09:13:00;-10.10;99.90
15107;DHT22;7654;45.308;-75.096;2022-12-10T09:15:30;-10.10;99.90
15107;DHT22;7654;45.308;-75.096;2022-12-10T09:18:02;-10.10;99.90
15107;DHT22;7654;45.308;-75.096;2022-12-10T09:20:33;-10.00;99.90
15107;DHT22;7654;45.308;-75.096;2022-12-10T09:23:03;-10.10;99.90
15107;DHT22;7654;45.308;-75.096;2022-12-10T09:25:33;-10.20;99.90
15107;DHT22;7654;45.308;-75.096;2022-12-10T09:28:04;-10.20;99.90
15107;DHT22;7654;45.308;-75.096;2022-12-10T09:30:34;-10.20;99.90
15107;DHT22;7654;45.308;-75.096;2022-12-10T09:33:05;-10.10;99.90
15107;DHT22;7654;45.308;-75.096;2022-12-10T09:35:40;-10.10;99.90
15107;DHT22;7654;45.308;-75.096;2022-12-10T09:38:10;-10.10;99.90
15107;DHT22;7654;45.308;-75.096;2022-12-10T09:40:50;-10.10;99.90
15107;DHT22;7654;45.308;-75.096;2022-12-10T09:43:26;-10.10;99.90
15107;DHT22;7654;45.308;-75.096;2022-12-10T09:46:02;-10.10;99.90
15107;DHT22;7654;45.308;-75.096;2022-12-10T09:48:48;-10.20;99.90
15107;DHT22;7654;45.308;-75.096;2022-12-10T09:51:24;-10.20;99.90
15107;DHT22;7654;45.308;-75.096;2022-12-10T09:53:57;-10.10;99.90
15107;DHT22;7654;45.308;-75.096;2022-12-10T09:56:31;-10.10;99.90
15107;DHT22;7654;45.308;-75.096;2022-12-10T09:59:06;-10.10;99.90
15107;DHT22;7654;45.308;-75.096;2022-12-10T10:01:41;-10.00;99.90
15107;DHT22;7654;45.308;-75.096;2022-12-10T10:04:12;-10.00;99.90
15107;DHT22;7654;45.308;-75.096;2022-12-10T10:06:44;-10.10;99.90
15107;DHT22;7654;45.308;-75.096;2022-12-10T10:09:15;-10.20;99.90
15107;DHT22;7654;45.308;-75.096;2022-12-10T10:11:45;-10.10;99.90
15107;DHT22;7654;45.308;-75.096;2022-12-10T10:14:20;-10.10;99.90
15107;DHT22;7654;45.308;-75.096;2022-12-10T10:16:55;-10.20;99.90
15107;DHT22;7654;45.308;-75.096;2022-12-10T10:19:28;-10.20;99.90
15107;DHT22;7654;45.308;-75.096;2022-12-10T10:22:04;-10.40;99.90
15107;DHT22;7654;45.308;-75.096;2022-12-10T10:24:36;-10.40;99.90
15107;DHT22;7654;45.308;-75.096;2022-12-10T10:27:12;-10.30;99.90
15107;DHT22;7654;45.308;-75.096;2022-12-10T10:29:45;-10.40;99.90
15107;DHT22;7654;45.308;-75.096;2022-12-10T10:32:24;-10.40;99.90
15107;DHT22;7654;45.308;-75.096;2022-12-10T10:34:56;-10.30;99.90
15107;DHT22;7654;45.308;-75.096;2022-12-10T10:37:30;-10.40;99.90
15107;DHT22;7654;45.308;-75.096;2022-12-10T10:40:21;-10.40;99.90
15107;DHT22;7654;45.308;-75.096;2022-12-10T10:42:55;-10.50;99.90
15107;DHT22;7654;45.308;-75.096;2022-12-10T10:45:38;-10.50;99.90
15107;DHT22;7654;45.308;-75.096;2022-12-10T10:48:13;-10.60;99.90
15107;DHT22;7654;45.308;-75.096;2022-12-10T10:50:45;-10.60;99.90
15107;DHT22;7654;45.308;-75.096;2022-12-10T10:53:29;-10.60;99.90
15107;DHT22;7654;45.308;-75.096;2022-12-10T10:56:06;-10.70;99.90
15107;DHT22;7654;45.308;-75.096;2022-12-10T10:58:37;-10.90;99.90
15107;DHT22;7654;45.308;-75.096;2022-12-10T11:01:15;-11.00;99.90
15107;DHT22;7654;45.308;-75.096;2022-12-10T11:03:48;-11.00;99.90
15107;DHT22;7654;45.308;-75.096;2022-12-10T11:06:20;-11.10;99.90
15107;DHT22;7654;45.308;-75.096;2022-12-10T11:08:55;-11.20;99.90
15107;DHT22;7654;45.308;-75.096;2022-12-10T11:11:32;-11.20;99.90
15107;DHT22;7654;45.308;-75.096;2022-12-10T11:14:22;-11.20;99.90
15107;DHT22;7654;45.308;-75.096;2022-12-10T11:17:00;-11.30;99.90
15107;DHT22;7654;45.308;-75.096;2022-12-10T11:19:32;-11.40;99.90
15107;DHT22;7654;45.308;-75.096;2022-12-10T11:22:16;-11.50;99.90
15107;DHT22;7654;45.308;-75.096;2022-12-10T11:24:49;-11.60;99.90
15107;DHT22;7654;45.308;-75.096;2022-12-10T11:27:31;-11.60;99.90
15107;DHT22;7654;45.308;-75.096;2022-12-10T11:30:05;-11.60;99.90
15107;DHT22;7654;45.308;-75.096;2022-12-10T11:32:47;-11.70;99.90
15107;DHT22;7654;45.308;-75.096;2022-12-10T11:35:30;-11.80;99.90
15107;DHT22;7654;45.308;-75.096;2022-12-10T11:38:13;-11.90;99.90
15107;DHT22;7654;45.308;-75.096;2022-12-10T11:40:49;-11.90;99.90
15107;DHT22;7654;45.308;-75.096;2022-12-10T11:43:38;-11.90;99.90
15107;DHT22;7654;45.308;-75.096;2022-12-10T11:46:28;-11.90;99.90
15107;DHT22;7654;45.308;-75.096;2022-12-10T11:49:13;-12.00;99.90
15107;DHT22;7654;45.308;-75.096;2022-12-10T11:51:46;-12.00;99.90
15107;DHT22;7654;45.308;-75.096;2022-12-10T11:54:30;-12.00;99.90
15107;DHT22;7654;45.308;-75.096;2022-12-10T11:57:09;-12.00;99.90
15107;DHT22;7654;45.308;-75.096;2022-12-10T11:59:46;-12.00;99.90
15107;DHT22;7654;45.308;-75.096;2022-12-10T12:03:03;-11.90;99.90
15107;DHT22;7654;45.308;-75.096;2022-12-10T12:05:45;-11.90;99.90
15107;DHT22;7654;45.308;-75.096;2022-12-10T12:08:26;-11.90;99.90
15107;DHT22;7654;45.308;-75.096;2022-12-10T12:11:15;-11.80;99.90
15107;DHT22;7654;45.308;-75.096;2022-12-10T12:13:55;-11.70;99.90
15107;DHT22;7654;45.308;-75.096;2022-12-10T12:16:31;-11.80;99.90
15107;DHT22;7654;45.308;-75.096;2022-12-10T12:19:09;-11.80;99.90
15107;DHT22;7654;45.308;-75.096;2022-12-10T12:21:43;-11.80;99.90
15107;DHT22;7654;45.308;-75.096;2022-12-10T12:24:19;-11.80;99.90
15107;DHT22;7654;45.308;-75.096;2022-12-10T12:26:53;-11.80;99.90
15107;DHT22;7654;45.308;-75.096;2022-12-10T12:29:28;-11.80;99.90
15107;DHT22;7654;45.308;-75.096;2022-12-10T12:32:05;-11.80;99.90
15107;DHT22;7654;45.308;-75.096;2022-12-10T12:34:49;-11.90;99.90
15107;DHT22;7654;45.308;-75.096;2022-12-10T12:37:32;-11.90;99.90
15107;DHT22;7654;45.308;-75.096;2022-12-10T12:40:11;-12.00;99.90
15107;DHT22;7654;45.308;-75.096;2022-12-10T12:42:47;-12.10;99.90
15107;DHT22;7654;45.308;-75.096;2022-12-10T12:45:30;-12.00;99.90
15107;DHT22;7654;45.308;-75.096;2022-12-10T12:48:09;-12.00;99.90
15107;DHT22;7654;45.308;-75.096;2022-12-10T12:50:44;-11.90;99.90
15107;DHT22;7654;45.308;-75.096;2022-12-10T12:53:17;-11.70;99.90
15107;DHT22;7654;45.308;-75.096;2022-12-10T12:55:55;-11.70;99.90
15107;DHT22;7654;45.308;-75.096;2022-12-10T12:58:35;-11.40;99.90
15107;DHT22;7654;45.308;-75.096;2022-12-10T13:01:17;-11.30;99.90
15107;DHT22;7654;45.308;-75.096;2022-12-10T13:03:50;-11.20;99.90
15107;DHT22;7654;45.308;-75.096;2022-12-10T13:06:22;-11.10;99.90
15107;DHT22;7654;45.308;-75.096;2022-12-10T13:08:58;-11.10;99.90
15107;DHT22;7654;45.308;-75.096;2022-12-10T13:11:46;-11.10;99.90
15107;DHT22;7654;45.308;-75.096;2022-12-10T13:14:38;-11.00;99.90
15107;DHT22;7654;45.308;-75.096;2022-12-10T13:17:31;-10.80;99.90
15107;DHT22;7654;45.308;-75.096;2022-12-10T13:20:30;-10.70;99.90
15107;DHT22;7654;45.308;-75.096;2022-12-10T13:23:02;-10.60;99.90
15107;DHT22;7654;45.308;-75.096;2022-12-10T13:25:56;-10.60;99.90
15107;DHT22;7654;45.308;-75.096;2022-12-10T13:28:39;-10.40;99.90
15107;DHT22;7654;45.308;-75.096;2022-12-10T13:31:22;-10.30;99.90
15107;DHT22;7654;45.308;-75.096;2022-12-10T13:34:29;-10.10;99.90
15107;DHT22;7654;45.308;-75.096;2022-12-10T13:40:01;-10.00;99.90
15107;DHT22;7654;45.308;-75.096;2022-12-10T13:42:34;-9.80;99.90
15107;DHT22;7654;45.308;-75.096;2022-12-10T13:45:28;-9.60;99.90
15107;DHT22;7654;45.308;-75.096;2022-12-10T13:48:26;-9.50;99.90
15107;DHT22;7654;45.308;-75.096;2022-12-10T13:51:36;-9.40;99.90
15107;DHT22;7654;45.308;-75.096;2022-12-10T13:54:24;-9.30;99.90
15107;DHT22;7654;45.308;-75.096;2022-12-10T13:57:04;-9.20;99.90
15107;DHT22;7654;45.308;-75.096;2022-12-10T13:59:42;-9.10;99.90
15107;DHT22;7654;45.308;-75.096;2022-12-10T14:02:35;-9.10;99.90
15107;DHT22;7654;45.308;-75.096;2022-12-10T14:08:13;-8.90;99.90
15107;DHT22;7654;45.308;-75.096;2022-12-10T14:10:47;-8.80;99.90
15107;DHT22;7654;45.308;-75.096;2022-12-10T14:13:20;-8.80;99.90
15107;DHT22;7654;45.308;-75.096;2022-12-10T14:15:54;-8.70;99.90
15107;DHT22;7654;45.308;-75.096;2022-12-10T14:18:28;-8.70;99.90
15107;DHT22;7654;45.308;-75.096;2022-12-10T14:21:03;-8.60;99.90
15107;DHT22;7654;45.308;-75.096;2022-12-10T14:23:44;-8.60;99.90
15107;DHT22;7654;45.308;-75.096;2022-12-10T14:26:27;-8.50;99.90
15107;DHT22;7654;45.308;-75.096;2022-12-10T14:29:00;-8.50;99.90
15107;DHT22;7654;45.308;-75.096;2022-12-10T14:31:33;-8.40;99.90
15107;DHT22;7654;45.308;-75.096;2022-12-10T14:34:07;-8.30;99.90
15107;DHT22;7654;45.308;-75.096;2022-12-10T14:36:44;-8.30;99.90
15107;DHT22;7654;45.308;-75.096;2022-12-10T14:39:20;-8.20;99.90
15107;DHT22;7654;45.308;-75.096;2022-12-10T14:41:52;-8.20;99.90
15107;DHT22;7654;45.308;-75.096;2022-12-10T14:44:25;-8.10;99.90
15107;DHT22;7654;45.308;-75.096;2022-12-10T14:47:04;-8.00;99.90
15107;DHT22;7654;45.308;-75.096;2022-12-10T14:49:39;-8.00;99.90
15107;DHT22;7654;45.308;-75.096;2022-12-10T14:52:14;-8.00;99.90
15107;DHT22;7654;45.308;-75.096;2022-12-10T14:54:48;-8.00;99.90
15107;DHT22;7654;45.308;-75.096;2022-12-10T14:57:21;-7.90;99.90
15107;DHT22;7654;45.308;-75.096;2022-12-10T14:59:59;-7.90;99.90
15107;DHT22;7654;45.308;-75.096;2022-12-10T15:02:33;-7.80;99.90
15107;DHT22;7654;45.308;-75.096;2022-12-10T15:05:10;-7.80;99.90
15107;DHT22;7654;45.308;-75.096;2022-12-10T15:07:41;-7.70;99.90
15107;DHT22;7654;45.308;-75.096;2022-12-10T15:10:17;-7.70;99.90
15107;DHT22;7654;45.308;-75.096;2022-12-10T15:12:50;-7.60;99.90
15107;DHT22;7654;45.308;-75.096;2022-12-10T15:15:26;-7.50;99.90
15107;DHT22;7654;45.308;-75.096;2022-12-10T15:18:00;-7.40;99.90
15107;DHT22;7654;45.308;-75.096;2022-12-10T15:20:37;-7.40;99.90
15107;DHT22;7654;45.308;-75.096;2022-12-10T15:23:16;-7.40;99.90
15107;DHT22;7654;45.308;-75.096;2022-12-10T15:25:57;-7.30;99.90
15107;DHT22;7654;45.308;-75.096;2022-12-10T15:28:29;-7.30;99.90
15107;DHT22;7654;45.308;-75.096;2022-12-10T15:31:11;-7.10;99.90
15107;DHT22;7654;45.308;-75.096;2022-12-10T15:33:44;-7.10;99.90
15107;DHT22;7654;45.308;-75.096;2022-12-10T15:36:22;-6.90;99.90
15107;DHT22;7654;45.308;-75.096;2022-12-10T15:38:53;-6.60;99.90
15107;DHT22;7654;45.308;-75.096;2022-12-10T15:41:42;-6.30;99.90
15107;DHT22;7654;45.308;-75.096;2022-12-10T15:44:23;-6.20;99.90
15107;DHT22;7654;45.308;-75.096;2022-12-10T15:47:01;-6.00;99.90
15107;DHT22;7654;45.308;-75.096;2022-12-10T15:49:31;-5.90;99.90
15107;DHT22;7654;45.308;-75.096;2022-12-10T15:52:02;-5.80;99.90
15107;DHT22;7654;45.308;-75.096;2022-12-10T15:54:34;-5.70;99.90
15107;DHT22;7654;45.308;-75.096;2022-12-10T15:57:12;-5.50;99.90
15107;DHT22;7654;45.308;-75.096;2022-12-10T15:59:43;-5.30;99.90
15107;DHT22;7654;45.308;-75.096;2022-12-10T16:02:28;-5.20;99.90
15107;DHT22;7654;45.308;-75.096;2022-12-10T16:05:10;-5.10;99.90